createdAt,value
2024-01-29T00:00:18.296Z,8.20
2024-01-29T00:03:05.354Z,8.20
2024-01-29T00:05:53.443Z,8.20
2024-01-29T00:08:39.891Z,8.20
2024-01-29T00:11:26.576Z,8.20
2024-01-29T00:14:13.385Z,8.20
2024-01-29T00:17:01.707Z,8.20
2024-01-29T00:19:48.553Z,8.20
2024-01-29T00:22:36.913Z,8.20
2024-01-29T00:25:23.570Z,8.20
2024-01-29T00:28:10.029Z,8.20
2024-01-29T00:30:56.712Z,8.10
2024-01-29T00:33:43.608Z,8.10
2024-01-29T00:36:30.489Z,8.10
2024-01-29T00:39:18.563Z,8.10
2024-01-29T00:42:06.510Z,8.10
2024-01-29T00:44:53.267Z,8.10
2024-01-29T00:47:40.085Z,8.10
2024-01-29T00:50:26.649Z,8.10
2024-01-29T00:53:13.150Z,8.10
2024-01-29T00:56:01.567Z,8.10
2024-01-29T00:58:48.435Z,8.00
2024-01-29T01:01:35.220Z,8.10
2024-01-29T01:04:22.083Z,8.00
2024-01-29T01:07:09.372Z,8.00
2024-01-29T01:09:56.469Z,8.00
2024-01-29T01:12:45.167Z,8.00
2024-01-29T01:15:31.660Z,7.90
2024-01-29T01:18:18.149Z,7.90
2024-01-29T01:21:05.095Z,7.90
2024-01-29T01:23:51.600Z,7.90
2024-01-29T01:26:37.990Z,7.90
2024-01-29T01:29:25.825Z,7.90
2024-01-29T01:32:12.664Z,7.80
2024-01-29T01:34:59.712Z,7.80
2024-01-29T01:37:46.572Z,7.70
2024-01-29T01:40:33.023Z,7.80
2024-01-29T01:43:21.668Z,7.70
2024-01-29T01:46:23.380Z,7.70
2024-01-29T01:49:11.699Z,7.70
2024-01-29T01:51:58.735Z,7.70
2024-01-29T01:54:47.167Z,7.70
2024-01-29T01:57:34.074Z,7.70
2024-01-29T02:00:21.264Z,7.70
2024-01-29T02:03:09.233Z,7.70
2024-01-29T02:05:56.588Z,7.70
2024-01-29T02:08:43.975Z,7.70
2024-01-29T02:11:30.814Z,7.80
2024-01-29T02:14:17.565Z,7.80
2024-01-29T02:17:04.502Z,7.80
2024-01-29T02:19:52.866Z,7.80
2024-01-29T02:22:45.017Z,7.80
2024-01-29T02:25:31.659Z,7.70
2024-01-29T02:28:18.166Z,7.80
2024-01-29T02:31:05.232Z,7.80
2024-01-29T02:34:29.484Z,7.80
2024-01-29T02:37:16.099Z,7.80
2024-01-29T02:40:05.379Z,7.80
2024-01-29T02:42:52.088Z,7.80
2024-01-29T02:45:38.590Z,7.70
2024-01-29T02:48:25.406Z,7.70
2024-01-29T02:51:12.184Z,7.80
2024-01-29T02:53:58.691Z,7.70
2024-01-29T02:56:46.725Z,7.70
2024-01-29T02:59:33.791Z,7.70
2024-01-29T03:02:20.539Z,7.70
2024-01-29T03:05:08.394Z,7.70
2024-01-29T03:07:55.289Z,7.70
2024-01-29T03:10:41.869Z,7.70
2024-01-29T03:13:29.678Z,7.70
2024-01-29T03:16:16.496Z,7.60
2024-01-29T03:19:03.215Z,7.60
2024-01-29T03:21:50.099Z,7.60
2024-01-29T03:24:37.223Z,7.50
2024-01-29T03:27:23.706Z,7.50
2024-01-29T03:30:12.826Z,7.50
2024-01-29T03:32:59.373Z,7.50
2024-01-29T03:35:45.873Z,7.40
2024-01-29T03:38:32.332Z,7.40
2024-01-29T03:41:19.328Z,7.30
2024-01-29T03:44:06.436Z,7.30
2024-01-29T03:46:54.189Z,7.20
2024-01-29T03:49:41.152Z,7.20
2024-01-29T03:52:28.117Z,7.20
2024-01-29T03:55:14.779Z,7.20
2024-01-29T03:58:01.774Z,7.10
2024-01-29T04:00:48.449Z,7.00
2024-01-29T04:03:36.351Z,7.00
2024-01-29T04:06:23.052Z,6.90
2024-01-29T04:09:10.595Z,6.90
2024-01-29T04:11:57.612Z,6.90
2024-01-29T04:15:31.609Z,6.90
2024-01-29T04:18:18.399Z,6.90
2024-01-29T04:21:08.512Z,6.90
2024-01-29T04:23:54.987Z,6.80
2024-01-29T04:26:42.135Z,6.90
2024-01-29T04:29:28.960Z,6.90
2024-01-29T04:32:15.422Z,6.90
2024-01-29T04:35:02.480Z,6.90
2024-01-29T04:37:52.495Z,6.80
2024-01-29T04:40:40.684Z,6.80
2024-01-29T04:43:27.496Z,6.80
2024-01-29T04:46:14.442Z,6.70
2024-01-29T04:49:01.078Z,6.70
2024-01-29T04:51:47.813Z,6.60
2024-01-29T04:54:36.019Z,6.60
2024-01-29T04:57:24.020Z,6.50
2024-01-29T05:00:11.929Z,6.50
2024-01-29T05:02:58.432Z,6.50
2024-01-29T05:05:45.494Z,6.50
2024-01-29T05:08:32.260Z,6.50
2024-01-29T05:11:20.404Z,6.50
2024-01-29T05:14:07.085Z,6.50
2024-01-29T05:16:53.652Z,6.50
2024-01-29T05:19:41.527Z,6.50
2024-01-29T05:22:27.965Z,6.40
2024-01-29T05:25:14.737Z,6.40
2024-01-29T05:28:03.018Z,6.40
2024-01-29T05:30:49.980Z,6.40
2024-01-29T05:33:36.770Z,6.40
2024-01-29T05:36:23.621Z,6.50
2024-01-29T05:39:10.171Z,6.50
2024-01-29T05:41:56.786Z,6.40
2024-01-29T05:44:44.637Z,6.40
2024-01-29T05:47:31.197Z,6.40
2024-01-29T05:50:18.192Z,6.40
2024-01-29T05:53:05.348Z,6.40
2024-01-29T05:55:51.951Z,6.30
2024-01-29T05:58:38.324Z,6.30
2024-01-29T06:01:26.347Z,6.30
2024-01-29T06:04:13.223Z,6.30
2024-01-29T06:07:00.482Z,6.30
2024-01-29T06:09:47.105Z,6.30
2024-01-29T06:12:33.810Z,6.30
2024-01-29T06:15:20.680Z,6.30
2024-01-29T06:18:08.905Z,6.30
2024-01-29T06:20:55.859Z,6.30
2024-01-29T06:23:42.317Z,6.20
2024-01-29T06:26:28.887Z,6.20
2024-01-29T06:29:15.654Z,6.10
2024-01-29T06:32:02.372Z,6.10
2024-01-29T06:34:57.994Z,6.10
2024-01-29T06:37:44.610Z,6.00
2024-01-29T06:40:31.376Z,6.00
2024-01-29T06:43:18.088Z,6.00
2024-01-29T06:46:04.702Z,6.00
2024-01-29T06:48:51.415Z,6.00
2024-01-29T06:51:39.654Z,6.00
2024-01-29T06:54:27.065Z,6.10
2024-01-29T06:57:13.995Z,6.10
2024-01-29T07:00:00.509Z,6.10
2024-01-29T07:02:47.176Z,6.10
2024-01-29T07:05:33.686Z,6.10
2024-01-29T07:08:21.620Z,6.10
2024-01-29T07:11:08.488Z,6.10
2024-01-29T07:13:55.012Z,6.10
2024-01-29T07:16:41.536Z,6.10
2024-01-29T07:19:34.127Z,6.20
2024-01-29T07:22:20.983Z,6.20
2024-01-29T07:25:11.284Z,6.20
2024-01-29T07:28:00.979Z,6.20
2024-01-29T07:30:47.634Z,6.20
2024-01-29T07:33:34.457Z,6.20
2024-01-29T07:36:21.046Z,6.20
2024-01-29T07:39:07.706Z,6.20
2024-01-29T07:41:55.913Z,6.20
2024-01-29T07:44:42.755Z,6.20
2024-01-29T07:47:29.197Z,6.20
2024-01-29T07:50:16.147Z,6.20
2024-01-29T07:53:03.756Z,6.30
2024-01-29T07:55:50.781Z,6.30
2024-01-29T07:58:38.832Z,6.30
2024-01-29T08:01:25.775Z,6.30
2024-01-29T08:04:12.872Z,6.20
2024-01-29T08:07:00.082Z,6.20
2024-01-29T08:09:47.393Z,6.30
2024-01-29T08:12:33.949Z,6.30
2024-01-29T08:15:23.772Z,6.30
2024-01-29T08:18:10.817Z,6.40
2024-01-29T08:20:57.743Z,6.40
2024-01-29T08:23:44.712Z,6.40
2024-01-29T08:26:31.178Z,6.50
2024-01-29T08:29:17.847Z,6.60
2024-01-29T08:32:06.318Z,6.60
2024-01-29T08:34:52.993Z,6.70
2024-01-29T08:37:40.001Z,6.80
2024-01-29T08:40:26.718Z,6.80
2024-01-29T08:43:13.123Z,7.00
2024-01-29T08:45:59.612Z,7.00
2024-01-29T08:48:49.048Z,7.10
2024-01-29T08:51:35.634Z,7.20
2024-01-29T08:54:22.121Z,7.30
2024-01-29T08:57:08.634Z,7.50
2024-01-29T08:59:55.147Z,7.50
2024-01-29T09:02:42.403Z,7.60
2024-01-29T09:05:30.413Z,7.80
2024-01-29T09:08:19.420Z,7.80
2024-01-29T09:11:07.190Z,7.90
2024-01-29T09:13:53.831Z,8.00
2024-01-29T09:16:40.453Z,8.00
2024-01-29T09:19:27.063Z,8.10
2024-01-29T09:22:15.540Z,8.20
2024-01-29T09:25:02.335Z,8.30
2024-01-29T09:27:49.409Z,8.30
2024-01-29T09:30:36.295Z,8.40
2024-01-29T09:33:23.300Z,8.50
2024-01-29T09:36:10.248Z,8.50
2024-01-29T09:38:58.244Z,8.60
2024-01-29T09:41:46.539Z,8.70
2024-01-29T09:44:38.804Z,8.70
2024-01-29T09:47:27.354Z,8.90
2024-01-29T09:50:16.661Z,9.00
2024-01-29T09:53:04.631Z,9.10
2024-01-29T09:55:52.887Z,9.10
2024-01-29T09:58:39.575Z,9.20
2024-01-29T10:01:26.244Z,9.20
2024-01-29T10:04:13.571Z,9.20
2024-01-29T10:07:00.627Z,9.30
2024-01-29T10:09:47.485Z,9.40
2024-01-29T10:12:35.538Z,9.40
2024-01-29T10:15:22.936Z,9.40
2024-01-29T10:18:12.918Z,9.40
2024-01-29T10:21:04.319Z,9.50
2024-01-29T10:23:56.560Z,9.60
2024-01-29T10:26:43.618Z,9.70
2024-01-29T10:29:31.833Z,9.70
2024-01-29T10:32:19.256Z,9.90
2024-01-29T10:35:06.953Z,9.90
2024-01-29T10:37:55.131Z,9.90
2024-01-29T10:40:43.242Z,9.90
2024-01-29T10:43:38.471Z,10.00
2024-01-29T10:46:26.935Z,10.10
2024-01-29T10:49:13.619Z,10.10
2024-01-29T10:52:02.592Z,10.20
2024-01-29T10:54:49.395Z,10.20
2024-01-29T10:57:38.303Z,10.30
2024-01-29T11:00:25.499Z,10.40
2024-01-29T11:03:14.609Z,10.40
2024-01-29T11:06:11.225Z,10.50
2024-01-29T11:09:03.466Z,10.50
2024-01-29T11:11:52.568Z,10.50
2024-01-29T11:14:39.527Z,10.50
2024-01-29T11:17:26.804Z,10.50
2024-01-29T11:20:16.611Z,10.50
2024-01-29T11:23:05.345Z,10.60
2024-01-29T11:25:52.593Z,10.60
2024-01-29T11:28:40.387Z,10.70
2024-01-29T11:31:40.226Z,10.80
2024-01-29T11:34:30.549Z,10.80
2024-01-29T11:37:29.645Z,10.90
2024-01-29T11:40:36.347Z,11.00
2024-01-29T11:43:23.232Z,11.10
2024-01-29T11:46:12.891Z,11.20
2024-01-29T11:49:00.565Z,11.20
2024-01-29T11:51:50.019Z,11.30
2024-01-29T11:54:38.688Z,11.30
2024-01-29T11:57:25.453Z,11.30
2024-01-29T12:00:12.922Z,11.40
2024-01-29T12:02:59.576Z,11.40
2024-01-29T12:05:48.292Z,11.50
2024-01-29T12:08:35.088Z,11.50
2024-01-29T12:11:23.289Z,11.50
2024-01-29T12:14:10.551Z,11.60
2024-01-29T12:16:58.429Z,11.60
2024-01-29T12:19:45.460Z,11.70
2024-01-29T12:22:32.509Z,11.70
2024-01-29T12:25:19.517Z,11.70
2024-01-29T12:28:11.196Z,11.80
2024-01-29T12:30:59.414Z,11.80
2024-01-29T12:33:48.801Z,11.80
2024-01-29T12:36:35.894Z,11.80
2024-01-29T12:39:22.425Z,11.80
2024-01-29T12:42:16.803Z,11.90
2024-01-29T12:45:12.062Z,11.90
2024-01-29T12:48:09.448Z,11.90
2024-01-29T12:50:56.267Z,11.80
2024-01-29T12:53:44.461Z,11.80
2024-01-29T12:56:32.489Z,11.80
2024-01-29T12:59:19.440Z,11.80
2024-01-29T13:02:09.123Z,11.70
2024-01-29T13:04:55.813Z,11.80
2024-01-29T13:07:44.489Z,11.80
2024-01-29T13:10:31.433Z,11.70
2024-01-29T13:13:18.189Z,11.70
2024-01-29T13:16:05.430Z,11.80
2024-01-29T13:18:54.299Z,11.80
2024-01-29T13:21:45.535Z,11.80
2024-01-29T13:24:31.972Z,11.80
2024-01-29T13:27:18.929Z,11.80
2024-01-29T13:30:06.466Z,11.80
2024-01-29T13:32:53.065Z,11.70
2024-01-29T13:35:40.707Z,11.80
2024-01-29T13:38:27.220Z,11.80
2024-01-29T13:41:13.855Z,11.80
2024-01-29T13:44:00.247Z,11.80
2024-01-29T13:46:47.296Z,11.80
2024-01-29T13:49:33.799Z,11.80
2024-01-29T13:52:21.577Z,11.80
2024-01-29T13:55:09.637Z,11.70
2024-01-29T13:57:56.532Z,11.80
2024-01-29T14:00:43.015Z,11.80
2024-01-29T14:03:29.475Z,11.80
2024-01-29T14:06:16.769Z,11.80
2024-01-29T14:09:05.961Z,11.80
2024-01-29T14:11:52.494Z,11.80
2024-01-29T14:14:46.352Z,11.80
2024-01-29T14:17:35.151Z,11.80
2024-01-29T14:20:22.021Z,11.80
2024-01-29T14:23:08.958Z,11.80
2024-01-29T14:25:56.885Z,11.80
2024-01-29T14:28:43.527Z,11.80
2024-01-29T14:31:30.224Z,11.80
2024-01-29T14:34:16.788Z,11.80
2024-01-29T14:37:03.726Z,11.80
2024-01-29T14:39:50.319Z,11.80
2024-01-29T14:42:38.159Z,11.80
2024-01-29T14:45:24.654Z,11.70
2024-01-29T14:48:11.641Z,11.80
2024-01-29T14:50:59.470Z,11.80
2024-01-29T14:53:46.376Z,11.70
2024-01-29T14:56:33.026Z,11.60
2024-01-29T14:59:21.229Z,11.60
2024-01-29T15:02:08.775Z,11.60
2024-01-29T15:04:56.244Z,11.70
2024-01-29T15:07:43.340Z,11.60
2024-01-29T15:10:30.635Z,11.60
2024-01-29T15:13:18.625Z,11.50
2024-01-29T15:16:08.164Z,11.50
2024-01-29T15:19:37.836Z,11.40
2024-01-29T15:22:24.673Z,11.30
2024-01-29T15:25:11.666Z,11.30
2024-01-29T15:27:58.398Z,11.20
2024-01-29T15:30:45.543Z,11.20
2024-01-29T15:33:34.296Z,11.20
2024-01-29T15:36:21.138Z,11.10
2024-01-29T15:39:08.981Z,11.00
2024-01-29T15:41:55.652Z,10.90
2024-01-29T15:44:43.932Z,10.80
2024-01-29T15:47:31.627Z,10.80
2024-01-29T15:50:20.148Z,10.70
2024-01-29T15:53:06.757Z,10.70
2024-01-29T15:55:54.260Z,10.60
2024-01-29T15:58:40.721Z,10.60
2024-01-29T16:01:27.393Z,10.60
2024-01-29T16:04:16.530Z,10.60
2024-01-29T16:07:05.657Z,10.50
2024-01-29T16:09:52.850Z,10.50
2024-01-29T16:12:40.184Z,10.50
2024-01-29T16:15:28.693Z,10.40
2024-01-29T16:18:15.766Z,10.30
2024-01-29T16:21:02.596Z,10.30
2024-01-29T16:23:52.489Z,10.20
2024-01-29T16:26:39.386Z,10.20
2024-01-29T16:29:27.574Z,10.20
2024-01-29T16:32:14.257Z,10.10
2024-01-29T16:35:01.315Z,10.10
2024-01-29T16:37:48.262Z,10.00
2024-01-29T16:40:36.928Z,10.00
2024-01-29T16:43:23.402Z,9.90
2024-01-29T16:46:10.736Z,9.90
2024-01-29T16:48:58.863Z,9.80
2024-01-29T16:51:45.570Z,9.80
2024-01-29T16:54:32.374Z,9.70
2024-01-29T16:57:20.400Z,9.60
2024-01-29T17:00:08.737Z,9.50
2024-01-29T17:02:55.150Z,9.50
2024-01-29T17:05:42.005Z,9.40
2024-01-29T17:08:29.475Z,9.30
2024-01-29T17:11:16.376Z,9.20
2024-01-29T17:14:04.586Z,9.20
2024-01-29T17:16:51.518Z,9.10
2024-01-29T17:19:38.552Z,9.10
2024-01-29T17:22:25.401Z,9.10
2024-01-29T17:25:12.621Z,9.00
2024-01-29T17:27:59.596Z,9.10
2024-01-29T17:30:47.378Z,9.00
2024-01-29T17:33:34.382Z,8.90
2024-01-29T17:36:22.206Z,8.80
2024-01-29T17:39:10.506Z,8.80
2024-01-29T17:41:58.636Z,8.80
2024-01-29T17:44:45.220Z,8.70
2024-01-29T17:47:33.641Z,8.60
2024-01-29T17:50:20.509Z,8.60
2024-01-29T17:53:07.297Z,8.60
2024-01-29T17:55:53.887Z,8.50
2024-01-29T17:58:40.485Z,8.50
2024-01-29T18:01:27.434Z,8.50
2024-01-29T18:04:15.621Z,8.40
2024-01-29T18:07:02.547Z,8.40
2024-01-29T18:09:49.199Z,8.40
2024-01-29T18:12:35.845Z,8.20
2024-01-29T18:15:22.298Z,8.20
2024-01-29T18:18:09.156Z,8.10
2024-01-29T18:20:58.785Z,8.10
2024-01-29T18:23:45.598Z,8.00
2024-01-29T18:26:32.204Z,8.00
2024-01-29T18:29:18.933Z,8.00
2024-01-29T18:32:08.716Z,8.00
2024-01-29T18:34:55.802Z,7.90
2024-01-29T18:37:44.642Z,7.90
2024-01-29T18:40:34.414Z,7.80
2024-01-29T18:43:21.266Z,7.80
2024-01-29T18:46:08.393Z,7.70
2024-01-29T18:48:55.223Z,7.70
2024-01-29T18:51:44.300Z,7.60
2024-01-29T18:54:32.669Z,7.60
2024-01-29T18:57:19.349Z,7.60
2024-01-29T19:00:06.908Z,7.50
2024-01-29T19:02:53.886Z,7.50
2024-01-29T19:05:40.643Z,7.50
2024-01-29T19:08:27.247Z,7.40
2024-01-29T19:11:15.251Z,7.40
2024-01-29T19:14:01.759Z,7.40
2024-01-29T19:16:48.318Z,7.40
2024-01-29T19:19:34.849Z,7.40
2024-01-29T19:22:21.989Z,7.40
2024-01-29T19:25:09.315Z,7.30
2024-01-29T19:27:57.520Z,7.30
2024-01-29T19:30:46.391Z,7.30
2024-01-29T19:33:32.994Z,7.20
2024-01-29T19:36:19.881Z,7.20
2024-01-29T19:39:06.477Z,7.10
2024-01-29T19:41:54.088Z,7.10
2024-01-29T19:44:42.850Z,7.10
2024-01-29T19:47:29.352Z,7.00
2024-01-29T19:50:17.754Z,7.00
2024-01-29T19:53:05.151Z,7.00
2024-01-29T19:55:52.404Z,6.90
2024-01-29T19:58:39.155Z,6.90
2024-01-29T20:01:27.225Z,6.90
2024-01-29T20:04:14.118Z,6.90
2024-01-29T20:07:00.975Z,6.80
2024-01-29T20:09:49.473Z,6.80
2024-01-29T20:12:36.168Z,6.70
2024-01-29T20:15:22.620Z,6.70
2024-01-29T20:18:10.576Z,6.70
2024-01-29T20:20:57.462Z,6.70
2024-01-29T20:23:46.702Z,6.70
2024-01-29T20:26:33.265Z,6.70
2024-01-29T20:29:19.622Z,6.60
2024-01-29T20:32:06.719Z,6.60
2024-01-29T20:34:54.646Z,6.60
2024-01-29T20:37:41.413Z,6.60
2024-01-29T20:40:28.260Z,6.50
2024-01-29T20:43:15.118Z,6.50
2024-01-29T20:46:05.106Z,6.50
2024-01-29T20:48:52.050Z,6.40
2024-01-29T20:51:41.305Z,6.40
2024-01-29T20:54:27.651Z,6.40
2024-01-29T20:57:14.206Z,6.30
2024-01-29T21:00:00.736Z,6.30
2024-01-29T21:02:47.848Z,6.40
2024-01-29T21:05:35.637Z,6.30
2024-01-29T21:08:24.113Z,6.30
2024-01-29T21:11:12.157Z,6.40
2024-01-29T21:13:58.577Z,6.90
2024-01-29T21:16:45.084Z,6.40
2024-01-29T21:19:31.793Z,6.40
2024-01-29T21:22:18.643Z,6.40
2024-01-29T21:25:10.787Z,6.40
2024-01-29T21:27:57.908Z,6.40
2024-01-29T21:30:44.319Z,6.30
2024-01-29T21:33:30.925Z,6.30
2024-01-29T21:36:18.788Z,6.20
2024-01-29T21:39:06.638Z,6.20
2024-01-29T21:41:54.759Z,6.10
2024-01-29T21:44:41.687Z,6.10
2024-01-29T21:47:28.597Z,6.10
2024-01-29T21:50:15.969Z,6.00
2024-01-29T21:53:02.435Z,6.00
2024-01-29T21:55:49.046Z,6.00
2024-01-29T21:58:37.124Z,6.00
2024-01-29T22:01:23.915Z,6.10
2024-01-29T22:04:11.003Z,6.00
2024-01-29T22:06:58.210Z,6.00
2024-01-29T22:09:46.690Z,6.00
2024-01-29T22:12:37.650Z,6.10
2024-01-29T22:15:25.290Z,6.00
2024-01-29T22:18:12.054Z,6.00
2024-01-29T22:20:59.311Z,6.00
2024-01-29T22:23:46.172Z,6.00
2024-01-29T22:26:33.082Z,5.90
2024-01-29T22:29:19.814Z,5.90
2024-01-29T22:32:08.740Z,6.00
2024-01-29T22:34:55.298Z,6.00
2024-01-29T22:37:42.210Z,6.10
2024-01-29T22:40:28.877Z,6.20
2024-01-29T22:43:17.433Z,6.20
2024-01-29T22:46:04.598Z,6.30
2024-01-29T22:48:54.999Z,6.20
2024-01-29T22:51:44.916Z,6.10
2024-01-29T22:54:31.550Z,6.10
2024-01-29T22:57:18.045Z,6.10
2024-01-29T23:00:16.041Z,6.20
2024-01-29T23:03:04.141Z,6.30
2024-01-29T23:05:52.042Z,6.30
2024-01-29T23:08:38.644Z,6.30
2024-01-29T23:11:25.019Z,6.50
2024-01-29T23:14:12.917Z,6.50
2024-01-29T23:17:00.707Z,6.50
2024-01-29T23:19:47.823Z,6.60
2024-01-29T23:22:35.881Z,6.60
2024-01-29T23:25:22.755Z,6.70
2024-01-29T23:28:09.713Z,6.70
2024-01-29T23:30:56.320Z,6.80
2024-01-29T23:33:42.950Z,6.80
2024-01-29T23:36:29.854Z,6.80
2024-01-29T23:39:17.621Z,6.80
2024-01-29T23:42:04.820Z,6.80
2024-01-29T23:44:51.624Z,6.80
2024-01-29T23:47:38.219Z,6.80
2024-01-29T23:50:24.724Z,6.80
2024-01-29T23:53:11.132Z,6.80
2024-01-29T23:55:59.227Z,6.80
2024-01-29T23:58:45.966Z,6.80
